Time;durP1;ratioP1;P1;durP2;ratioP2;P2;SDS_P1;SDS_P2;PMS_P1;PMS_P2;Temp;Humidity;BMP_temperature;BMP_pressure;BME280_temperature;BME280_humidity;BME280_pressure;Samples;Min_cycle;Max_cycle;Signal;HPM_P1;HPM_P2
2024/02/20 00:02:08;;;;;;;12.90;6.60;;;;;;;-2.37;66.91;100675.34;109223;1252;69635;-83
2024/02/20 00:04:36;;;;;;;12.30;6.80;;;;;;;-2.38;67.01;100669.67;109422;1253;71294;-82
2024/02/20 00:07:04;;;;;;;10.10;6.30;;;;;;;-2.39;67.07;100668.17;109278;1252;61119;-82
2024/02/20 00:09:33;;;;;;;10.90;6.20;;;;;;;-2.40;67.12;100658.66;109359;1252;59227;-81
2024/02/20 00:12:00;;;;;;;8.70;5.80;;;;;;;-2.41;67.34;100659.05;108205;1253;71844;-81
2024/02/20 00:14:27;;;;;;;10.30;5.10;;;;;;;-2.42;67.42;100659.10;107350;1253;69151;-82
2024/02/20 00:16:55;;;;;;;7.20;5.10;;;;;;;-2.36;67.31;100655.02;106086;1260;71582;-82
2024/02/20 00:19:22;;;;;;;10.80;6.00;;;;;;;-2.24;67.30;100657.84;106125;1258;59787;-81
2024/02/20 00:21:50;;;;;;;8.00;5.00;;;;;;;-2.23;67.35;100649.43;106162;1254;59979;-83
2024/02/20 00:24:18;;;;;;;9.10;5.40;;;;;;;-2.25;67.27;100640.84;106051;1261;72276;-83
2024/02/20 00:26:45;;;;;;;9.40;5.70;;;;;;;-2.26;67.24;100639.84;106053;1253;70285;-83
2024/02/20 00:29:13;;;;;;;12.00;6.00;;;;;;;-2.28;67.38;100633.38;106228;1253;71292;-82
2024/02/20 00:31:40;;;;;;;10.10;5.80;;;;;;;-2.32;67.32;100632.31;106091;1256;59755;-81
2024/02/20 00:34:08;;;;;;;8.40;5.50;;;;;;;-2.33;67.41;100639.48;106093;1261;59543;-77
2024/02/20 00:36:36;;;;;;;9.50;5.40;;;;;;;-2.36;67.67;100647.56;105955;1258;73076;-80
2024/02/20 00:39:03;;;;;;;9.80;6.20;;;;;;;-2.41;67.99;100640.14;105827;1253;69577;-80
2024/02/20 00:41:31;;;;;;;11.30;5.80;;;;;;;-2.46;68.23;100636.21;105575;1257;72214;-78
2024/02/20 00:43:58;;;;;;;11.70;6.10;;;;;;;-2.51;68.22;100629.81;105891;1253;59745;-79
2024/02/20 00:46:26;;;;;;;10.60;6.30;;;;;;;-2.55;68.51;100628.21;105937;1253;60364;-80
2024/02/20 00:48:55;;;;;;;10.40;5.80;;;;;;;-2.52;68.64;100624.64;105967;1253;71734;-81
2024/02/20 00:51:23;;;;;;;8.80;5.30;;;;;;;-2.41;68.52;100626.09;106027;1254;69286;-83
2024/02/20 00:53:51;;;;;;;7.80;5.30;;;;;;;-2.41;68.73;100625.04;105927;1253;72610;-81
2024/02/20 00:56:18;;;;;;;10.70;6.00;;;;;;;-2.45;68.66;100619.98;107143;1260;59560;-82
2024/02/20 00:58:46;;;;;;;9.70;6.00;;;;;;;-2.46;68.62;100623.36;106483;1253;59661;-81
2024/02/20 01:01:13;;;;;;;9.50;6.60;;;;;;;-2.49;68.87;100619.29;107449;1253;72275;-82
2024/02/20 01:03:44;;;;;;;8.70;5.40;;;;;;;-2.51;68.92;100615.93;109287;1253;69069;-82
2024/02/20 01:06:11;;;;;;;12.00;6.40;;;;;;;-2.52;68.75;100609.05;109224;1252;71422;-82
2024/02/20 01:08:41;;;;;;;8.10;5.30;;;;;;;-2.53;68.80;100603.17;108598;1258;59588;-82
2024/02/20 01:11:09;;;;;;;10.50;6.50;;;;;;;-2.54;69.22;100610.33;107627;1258;59158;-82
2024/02/20 01:13:37;;;;;;;11.00;6.30;;;;;;;-2.58;69.18;100604.05;106223;1260;71756;-83
2024/02/20 01:16:06;;;;;;;10.60;5.70;;;;;;;-2.61;69.50;100599.52;105972;1258;68877;-82
2024/02/20 01:18:34;;;;;;;8.40;5.20;;;;;;;-2.54;69.56;100599.07;107565;1253;71499;-83
2024/02/20 01:21:03;;;;;;;7.60;5.00;;;;;;;-2.43;69.35;100595.64;108108;1258;59595;-83
2024/02/20 01:23:31;;;;;;;8.10;4.90;;;;;;;-2.43;69.44;100595.45;106297;1253;59842;-81
2024/02/20 01:25:58;;;;;;;7.60;5.00;;;;;;;-2.46;69.64;100594.05;106266;1257;71771;-81
2024/02/20 01:28:26;;;;;;;9.60;6.10;;;;;;;-2.48;69.52;100587.89;106113;1253;70304;-82
2024/02/20 01:30:54;;;;;;;7.50;5.30;;;;;;;-2.51;69.81;100593.20;105995;1256;72945;-82
2024/02/20 01:33:21;;;;;;;8.50;5.40;;;;;;;-2.54;69.82;100595.59;107119;1253;59673;-83
2024/02/20 01:35:48;;;;;;;8.00;5.30;;;;;;;-2.59;69.99;100594.06;109413;1253;58967;-81
2024/02/20 01:38:16;;;;;;;9.50;6.20;;;;;;;-2.62;70.09;100590.17;108543;1258;71761;-82
2024/02/20 01:40:43;;;;;;;10.00;5.80;;;;;;;-2.64;70.53;100592.33;107040;1253;70343;-83
2024/02/20 01:43:11;;;;;;;8.70;5.70;;;;;;;-2.61;70.47;100591.68;106499;1256;72814;-82
2024/02/20 01:45:38;;;;;;;8.20;5.40;;;;;;;-2.50;70.37;100590.05;105913;1254;59762;-83
2024/02/20 01:48:06;;;;;;;7.90;5.10;;;;;;;-2.48;70.43;100585.98;105966;1252;62124;-84
2024/02/20 01:50:36;;;;;;;10.40;5.50;;;;;;;-2.50;70.33;100585.00;106078;1253;71741;-83
2024/02/20 01:53:04;;;;;;;10.00;6.00;;;;;;;-2.50;70.45;100582.93;106965;1253;68990;-85
2024/02/20 01:55:33;;;;;;;9.80;6.00;;;;;;;-2.51;70.52;100582.11;108608;1253;71606;-83
2024/02/20 01:58:00;;;;;;;9.50;6.10;;;;;;;-2.52;70.49;100576.23;107434;1254;59724;-82
2024/02/20 02:00:28;;;;;;;11.60;6.90;;;;;;;-2.52;70.51;100578.17;109537;1252;58727;-82
2024/02/20 02:02:56;;;;;;;10.80;6.30;;;;;;;-2.52;70.56;100577.48;109348;1252;73974;-85
2024/02/20 02:05:23;;;;;;;10.70;6.40;;;;;;;-2.52;70.61;100580.07;109066;1253;69400;-84
2024/02/20 02:07:51;;;;;;;9.30;5.70;;;;;;;-2.46;70.59;100575.31;109057;1253;71074;-82
2024/02/20 02:10:19;;;;;;;9.00;4.90;;;;;;;-2.34;70.34;100573.74;107241;1253;60103;-85
2024/02/20 02:12:46;;;;;;;9.20;5.60;;;;;;;-2.31;70.28;100575.69;106208;1254;60135;-85
2024/02/20 02:15:14;;;;;;;10.10;6.10;;;;;;;-2.32;70.38;100574.52;106198;1253;73095;-83
2024/02/20 02:17:42;;;;;;;10.70;6.20;;;;;;;-2.35;70.40;100572.23;106058;1253;69969;-81
2024/02/20 02:20:10;;;;;;;9.50;6.10;;;;;;;-2.39;70.50;100582.27;105893;1253;71316;-81
2024/02/20 02:22:37;;;;;;;9.50;6.10;;;;;;;-2.44;70.63;100580.05;105826;1258;59731;-82
2024/02/20 02:25:07;;;;;;;9.60;6.30;;;;;;;-2.48;70.70;100581.62;106337;1253;59820;-82
2024/02/20 02:27:36;;;;;;;9.30;6.80;;;;;;;-2.52;70.78;100569.83;106532;1254;73090;-82
2024/02/20 02:30:05;;;;;;;10.70;6.70;;;;;;;-2.54;70.74;100557.08;107282;1253;69990;-82
2024/02/20 02:32:33;;;;;;;8.80;5.90;;;;;;;-2.49;70.88;100553.92;108544;1253;71823;-84
2024/02/20 02:35:01;;;;;;;11.30;6.30;;;;;;;-2.37;70.77;100548.35;106484;1253;60566;-83
2024/02/20 02:37:29;;;;;;;9.10;6.10;;;;;;;-2.32;70.85;100537.58;106340;1253;60518;-82
2024/02/20 02:39:57;;;;;;;9.90;6.00;;;;;;;-2.31;70.90;100538.94;106096;1253;72468;-82
2024/02/20 02:42:24;;;;;;;11.90;7.30;;;;;;;-2.32;70.91;100538.30;105911;1253;70371;-82
2024/02/20 02:44:52;;;;;;;11.90;6.50;;;;;;;-2.34;70.77;100535.91;105737;1259;72667;-82
2024/02/20 02:47:19;;;;;;;10.40;6.80;;;;;;;-2.34;70.88;100535.41;105994;1253;60549;-84
2024/02/20 02:49:47;;;;;;;9.00;6.30;;;;;;;-2.35;70.87;100534.05;105971;1254;60513;-83
2024/02/20 02:52:16;;;;;;;11.90;6.80;;;;;;;-2.38;71.25;100533.48;106162;1255;72654;-84
2024/02/20 02:54:43;;;;;;;8.50;6.20;;;;;;;-2.40;71.07;100524.71;107397;1254;67873;-82
2024/02/20 02:57:11;;;;;;;11.00;6.30;;;;;;;-2.32;71.13;100526.14;108364;1253;71061;-84
2024/02/20 02:59:39;;;;;;;10.10;7.00;;;;;;;-2.24;70.85;100531.14;109368;1253;58782;-83
2024/02/20 03:02:10;;;;;;;11.90;7.20;;;;;;;-2.24;70.81;100522.46;109234;1253;59043;-80
2024/02/20 03:04:38;;;;;;;10.90;6.40;;;;;;;-2.24;71.02;100521.94;108795;1253;72863;-80
2024/02/20 03:07:06;;;;;;;12.00;6.80;;;;;;;-2.23;70.82;100523.13;109027;1253;68266;-80
2024/02/20 03:09:33;;;;;;;8.80;6.10;;;;;;;-2.23;70.88;100523.82;108151;1258;72733;-81
2024/02/20 03:12:00;;;;;;;9.70;6.60;;;;;;;-2.25;70.85;100527.20;106158;1256;60492;-81
2024/02/20 03:14:28;;;;;;;9.80;6.60;;;;;;;-2.30;70.89;100529.68;105972;1256;60432;-85
2024/02/20 03:16:55;;;;;;;10.20;5.90;;;;;;;-2.33;70.96;100534.16;105950;1253;73815;-82
2024/02/20 03:19:23;;;;;;;9.00;5.50;;;;;;;-2.26;71.04;100536.63;105779;1253;68704;-83
2024/02/20 03:21:50;;;;;;;10.30;7.10;;;;;;;-2.22;70.85;100530.69;106039;1258;70291;-82
2024/02/20 03:24:19;;;;;;;9.70;6.50;;;;;;;-2.23;70.91;100535.09;106453;1253;60467;-81
2024/02/20 03:26:47;;;;;;;11.00;6.60;;;;;;;-2.28;71.03;100531.36;105918;1253;60101;-83
2024/02/20 03:29:15;;;;;;;10.60;6.50;;;;;;;-2.35;71.07;100535.09;106886;1254;73913;-83
2024/02/20 03:31:42;;;;;;;12.60;6.90;;;;;;;-2.38;71.25;100542.84;107291;1253;68723;-83
2024/02/20 03:34:10;;;;;;;14.20;7.60;;;;;;;-2.38;71.20;100541.83;106512;1257;71739;-83
2024/02/20 03:36:38;;;;;;;12.00;7.30;;;;;;;-2.40;71.20;100538.61;106096;1254;60550;-83
2024/02/20 03:39:07;;;;;;;14.80;8.00;;;;;;;-2.41;71.26;100540.02;106924;1253;60336;-82
2024/02/20 03:41:34;;;;;;;12.40;7.00;;;;;;;-2.32;71.06;100545.89;106493;1253;72825;-83
2024/02/20 03:44:02;;;;;;;14.40;7.80;;;;;;;-2.23;70.90;100537.86;108605;1258;70015;-84
2024/02/20 03:46:29;;;;;;;14.00;7.60;;;;;;;-2.24;70.88;100539.63;106643;1254;72148;-84
2024/02/20 03:48:57;;;;;;;13.10;7.50;;;;;;;-2.26;70.90;100531.95;106438;1253;60389;-83
2024/02/20 03:51:25;;;;;;;13.20;8.00;;;;;;;-2.28;70.84;100523.34;107642;1258;60382;-82
2024/02/20 03:53:53;;;;;;;11.70;7.10;;;;;;;-2.27;70.72;100528.66;108678;1252;72587;-85
2024/02/20 03:56:20;;;;;;;11.70;7.10;;;;;;;-2.27;70.45;100530.23;109378;1253;68687;-82
2024/02/20 03:58:48;;;;;;;10.80;6.80;;;;;;;-2.30;70.52;100521.71;109531;1253;71758;-82
2024/02/20 04:01:15;;;;;;;12.00;7.00;;;;;;;-2.32;70.14;100523.52;109541;1253;58839;-82
2024/02/20 04:03:43;;;;;;;9.70;5.60;;;;;;;-2.32;70.12;100528.36;109593;1253;58767;-83
2024/02/20 04:06:11;;;;;;;8.50;5.50;;;;;;;-2.19;69.90;100518.98;107485;1257;73354;-84
2024/02/20 04:08:38;;;;;;;11.50;6.40;;;;;;;-2.07;69.78;100518.77;106835;1259;68887;-84
2024/02/20 04:11:06;;;;;;;10.70;6.20;;;;;;;-2.05;69.61;100519.20;107478;1253;72776;-82
2024/02/20 04:13:33;;;;;;;8.80;5.70;;;;;;;-2.06;69.25;100515.94;107799;1255;60530;-83
2024/02/20 04:16:01;;;;;;;12.10;7.00;;;;;;;-2.07;69.28;100509.90;106928;1258;60446;-84
2024/02/20 04:18:28;;;;;;;10.00;6.70;;;;;;;-2.09;69.23;100507.61;107690;1253;72473;-83
2024/02/20 04:20:56;;;;;;;10.60;6.90;;;;;;;-2.11;69.32;100511.34;108685;1258;69390;-81
2024/02/20 04:23:24;;;;;;;11.40;6.50;;;;;;;-2.12;69.28;100505.46;107133;1258;72801;-82
2024/02/20 04:25:51;;;;;;;9.10;6.00;;;;;;;-2.13;69.36;100501.88;105983;1259;60525;-82
2024/02/20 04:28:19;;;;;;;10.50;6.70;;;;;;;-2.18;69.51;100511.08;105855;1253;60327;-81
2024/02/20 04:30:47;;;;;;;10.40;6.20;;;;;;;-2.24;69.46;100511.18;105938;1253;75882;-82
2024/02/20 04:33:14;;;;;;;10.70;6.40;;;;;;;-2.20;69.48;100507.53;105884;1261;69499;-82
2024/02/20 04:35:42;;;;;;;9.40;6.20;;;;;;;-2.13;69.47;100511.23;105727;1257;70086;-81
2024/02/20 04:38:09;;;;;;;9.90;6.50;;;;;;;-2.13;69.50;100510.56;105714;1255;60568;-83
2024/02/20 04:40:36;;;;;;;10.20;7.20;;;;;;;-2.16;69.58;100507.39;105963;1257;60413;-84
2024/02/20 04:43:04;;;;;;;10.20;7.20;;;;;;;-2.19;69.72;100509.40;105742;1254;73937;-83
2024/02/20 04:45:32;;;;;;;9.00;6.10;;;;;;;-2.20;69.67;100504.06;106348;1254;70294;-83
2024/02/20 04:47:59;;;;;;;9.90;6.70;;;;;;;-2.22;69.83;100507.30;106984;1254;71165;-82
2024/02/20 04:50:27;;;;;;;9.90;7.30;;;;;;;-2.24;70.08;100506.50;107047;1257;60439;-84
2024/02/20 04:52:54;;;;;;;14.20;7.60;;;;;;;-2.27;70.17;100504.55;109140;1254;60287;-83
2024/02/20 04:55:21;;;;;;;8.50;6.40;;;;;;;-2.27;70.15;100507.69;109355;1252;72730;-84
2024/02/20 04:57:49;;;;;;;11.80;6.60;;;;;;;-2.16;70.07;100510.14;109335;1254;69009;-84
2024/02/20 05:00:17;;;;;;;8.80;6.00;;;;;;;-2.04;69.93;100505.77;108553;1258;71066;-84
2024/02/20 05:02:44;;;;;;;9.80;6.40;;;;;;;-1.98;69.86;100507.26;108144;1253;60437;-82
2024/02/20 05:05:12;;;;;;;9.10;6.70;;;;;;;-1.96;69.91;100505.95;106437;1255;60498;-83
2024/02/20 05:07:40;;;;;;;7.80;5.70;;;;;;;-1.95;69.74;100508.02;106288;1261;72892;-82
2024/02/20 05:10:07;;;;;;;10.20;5.60;;;;;;;-1.99;69.68;100502.43;105928;1258;69927;-82
2024/02/20 05:12:36;;;;;;;9.10;5.70;;;;;;;-2.02;69.58;100495.80;106048;1260;71876;-82
2024/02/20 05:15:04;;;;;;;8.20;5.90;;;;;;;-2.07;69.71;100495.52;106270;1258;60396;-82
2024/02/20 05:17:31;;;;;;;8.00;5.30;;;;;;;-2.11;69.86;100494.15;105990;1257;60344;-79
2024/02/20 05:19:59;;;;;;;9.60;6.30;;;;;;;-2.16;69.88;100497.32;106064;1260;73830;-81
2024/02/20 05:22:30;;;;;;;7.50;5.10;;;;;;;-2.19;70.11;100503.69;105842;1260;69915;-81
2024/02/20 05:24:57;;;;;;;9.80;5.70;;;;;;;-2.14;70.10;100507.95;105936;1257;71349;-80
2024/02/20 05:27:25;;;;;;;7.80;5.30;;;;;;;-2.04;70.07;100514.28;106024;1257;60591;-80
2024/02/20 05:29:52;;;;;;;7.80;5.90;;;;;;;-2.03;69.80;100512.20;106269;1255;60610;-80
2024/02/20 05:32:20;;;;;;;9.00;5.30;;;;;;;-2.06;69.79;100526.05;108595;1257;72839;-83
2024/02/20 05:34:47;;;;;;;7.70;5.50;;;;;;;-2.07;69.95;100506.42;106356;1255;69440;-83
2024/02/20 05:37:15;;;;;;;7.60;5.30;;;;;;;-2.06;69.79;100504.48;106385;1257;72741;-86
2024/02/20 05:39:42;;;;;;;8.70;6.10;;;;;;;-2.05;69.95;100508.45;106845;1254;60446;-84
2024/02/20 05:42:10;;;;;;;8.50;5.60;;;;;;;-2.05;69.81;100508.27;109337;1253;58743;-84
2024/02/20 05:44:37;;;;;;;10.80;6.50;;;;;;;-2.05;69.72;100513.81;109201;1254;73257;-83
2024/02/20 05:47:05;;;;;;;9.50;6.30;;;;;;;-2.05;69.63;100518.34;106552;1257;69978;-82
2024/02/20 05:49:33;;;;;;;10.20;5.30;;;;;;;-2.07;69.70;100514.24;107802;1254;73810;-85
2024/02/20 05:52:01;;;;;;;9.80;5.90;;;;;;;-2.04;69.84;100524.38;109231;1254;60645;-85
2024/02/20 05:54:28;;;;;;;10.20;5.70;;;;;;;-1.91;69.43;100516.16;109396;1254;59080;-85
2024/02/20 05:56:57;;;;;;;8.50;5.20;;;;;;;-1.86;69.64;100508.64;109313;1253;72670;-85
2024/02/20 05:59:24;;;;;;;9.10;6.20;;;;;;;-1.85;69.30;100511.52;108808;1254;71097;-83
2024/02/20 06:01:52;;;;;;;8.50;5.50;;;;;;;-1.83;69.29;100507.42;106349;1260;71476;-82
2024/02/20 06:04:19;;;;;;;9.90;6.50;;;;;;;-1.83;69.09;100507.77;105806;1257;60504;-83
2024/02/20 06:06:47;;;;;;;7.40;5.40;;;;;;;-1.84;68.97;100505.58;107133;1257;60413;-84
2024/02/20 06:09:14;;;;;;;11.20;5.60;;;;;;;-1.84;69.04;100500.17;107164;1260;73747;-83
2024/02/20 06:11:42;;;;;;;9.80;6.10;;;;;;;-1.84;68.90;100500.89;106224;1260;70116;-84
2024/02/20 06:14:10;;;;;;;8.70;6.10;;;;;;;-1.87;68.90;100498.78;106790;1253;72743;-82
2024/02/20 06:16:38;;;;;;;8.70;6.10;;;;;;;-1.90;69.11;100499.63;106232;1258;60445;-81
2024/02/20 06:19:05;;;;;;;9.70;5.70;;;;;;;-1.93;69.04;100502.00;106196;1254;60417;-83
2024/02/20 06:21:33;;;;;;;8.10;5.00;;;;;;;-1.87;68.94;100500.33;106818;1253;72786;-83
2024/02/20 06:24:01;;;;;;;9.00;5.20;;;;;;;-1.75;68.67;100503.09;106657;1258;70663;-82
2024/02/20 06:26:30;;;;;;;8.80;6.00;;;;;;;-1.72;68.51;100499.85;106343;1258;71370;-82
2024/02/20 06:28:58;;;;;;;10.70;6.80;;;;;;;-1.73;68.57;100497.80;106534;1259;60404;-81
2024/02/20 06:31:25;;;;;;;8.80;6.20;;;;;;;-1.72;68.36;100507.14;106341;1257;60522;-83
2024/02/20 06:33:53;;;;;;;8.90;6.10;;;;;;;-1.73;68.25;100498.82;106253;1261;73045;-81
2024/02/20 06:36:20;;;;;;;10.20;5.70;;;;;;;-1.73;68.13;100507.19;106446;1257;69387;-82
2024/02/20 06:38:48;;;;;;;8.30;5.80;;;;;;;-1.74;68.05;100513.49;106520;1260;71452;-82
2024/02/20 06:41:15;;;;;;;14.60;6.10;;;;;;;-1.77;68.14;100509.25;106760;1257;60521;-80
2024/02/20 06:43:43;;;;;;;9.90;6.30;;;;;;;-1.79;67.94;100500.84;107414;1253;60462;-81
2024/02/20 06:46:10;;;;;;;8.40;5.40;;;;;;;-1.80;67.95;100502.27;106531;1254;71828;-80
2024/02/20 06:48:38;;;;;;;10.80;6.50;;;;;;;-1.80;67.93;100502.60;107022;1259;70091;-82
2024/02/20 06:51:05;;;;;;;11.30;6.10;;;;;;;-1.80;68.05;100497.05;107687;1254;71113;-82
2024/02/20 06:53:33;;;;;;;14.50;6.60;;;;;;;-1.77;67.90;100501.83;108917;1253;60912;-79
2024/02/20 06:56:00;;;;;;;11.20;6.40;;;;;;;-1.75;67.73;100498.73;107821;1253;60389;-82
2024/02/20 06:58:28;;;;;;;10.20;6.40;;;;;;;-1.61;67.79;100501.24;106851;1259;73888;-80
2024/02/20 07:00:55;;;;;;;10.30;5.90;;;;;;;-1.47;67.22;100492.04;106162;1254;70062;-81
2024/02/20 07:03:23;;;;;;;9.10;5.50;;;;;;;-1.45;66.97;100496.48;106205;1260;72442;-81
2024/02/20 07:05:50;;;;;;;9.00;6.20;;;;;;;-1.47;66.53;100484.60;106302;1258;60361;-79
2024/02/20 07:08:18;;;;;;;8.80;6.10;;;;;;;-1.48;66.72;100500.79;106175;1257;60616;-79
2024/02/20 07:10:46;;;;;;;11.40;6.10;;;;;;;-1.49;66.34;100486.25;106155;1257;74007;-82
2024/02/20 07:13:14;;;;;;;12.20;6.20;;;;;;;-1.51;66.38;100478.86;106346;1254;68190;-79
2024/02/20 07:15:41;;;;;;;9.90;6.20;;;;;;;-1.51;66.19;100474.19;105866;1254;72484;-82
2024/02/20 07:18:08;;;;;;;9.00;5.80;;;;;;;-1.53;65.92;100478.46;106317;1260;60496;-80
2024/02/20 07:20:36;;;;;;;8.90;5.00;;;;;;;-1.56;65.79;100482.56;106823;1254;60451;-80
2024/02/20 07:23:04;;;;;;;9.10;5.50;;;;;;;-1.57;65.70;100485.58;106450;1256;73758;-81
2024/02/20 07:25:31;;;;;;;9.70;6.30;;;;;;;-1.60;65.49;100486.77;105800;1254;70592;-80
2024/02/20 07:28:00;;;;;;;8.00;4.60;;;;;;;-1.64;65.74;100480.84;105922;1254;72504;-79
2024/02/20 07:30:30;;;;;;;10.50;5.60;;;;;;;-1.65;65.54;100473.61;105973;1257;60437;-82
2024/02/20 07:32:58;;;;;;;8.30;5.10;;;;;;;-1.65;65.64;100484.20;105707;1260;60388;-81
2024/02/20 07:35:26;;;;;;;10.90;5.40;;;;;;;-1.63;65.49;100485.02;106031;1252;72570;-81
2024/02/20 07:37:55;;;;;;;11.20;5.90;;;;;;;-1.64;65.70;100470.81;106026;1260;70222;-81
2024/02/20 07:40:23;;;;;;;12.10;5.60;;;;;;;-1.64;65.50;100462.63;106191;1254;74803;-81
2024/02/20 07:42:50;;;;;;;10.20;5.00;;;;;;;-1.61;65.42;100460.41;106185;1254;60441;-81
2024/02/20 07:45:18;;;;;;;8.90;5.00;;;;;;;-1.57;65.48;100462.63;107524;1252;59102;-82
2024/02/20 07:47:45;;;;;;;12.00;5.20;;;;;;;-1.52;65.08;100466.41;108822;1254;72705;-80
2024/02/20 07:50:13;;;;;;;8.50;5.10;;;;;;;-1.49;65.02;100463.30;108571;1253;67926;-79
2024/02/20 07:52:42;;;;;;;7.10;4.70;;;;;;;-1.45;64.82;100463.48;107706;1254;74015;-78
2024/02/20 07:55:09;;;;;;;12.60;6.20;;;;;;;-1.42;64.77;100473.58;107525;1259;60482;-78
2024/02/20 07:57:37;;;;;;;9.60;5.00;;;;;;;-1.40;64.50;100458.15;108009;1252;61121;-78
2024/02/20 08:00:05;;;;;;;8.50;4.70;;;;;;;-1.39;64.63;100466.48;107144;1252;72550;-80
2024/02/20 08:02:39;;;;;;;10.00;5.20;;;;;;;-1.41;64.50;100472.98;106095;1260;68868;-79
2024/02/20 08:05:09;;;;;;;8.50;4.70;;;;;;;-1.41;64.54;100475.75;106084;1254;73187;-79
2024/02/20 08:07:37;;;;;;;6.60;4.50;;;;;;;-1.41;64.71;100481.52;106827;1253;60544;-80
2024/02/20 08:10:08;;;;;;;6.30;4.00;;;;;;;-1.44;64.59;100480.95;108133;1254;58976;-81
2024/02/20 08:12:35;;;;;;;9.80;4.50;;;;;;;-1.47;64.67;100469.31;107975;1259;74048;-81
2024/02/20 08:15:04;;;;;;;9.60;5.60;;;;;;;-1.48;64.99;100465.17;107649;1259;69688;-80
2024/02/20 08:17:31;;;;;;;6.40;4.60;;;;;;;-1.47;65.06;100469.47;106666;1254;71081;-79
2024/02/20 08:19:58;;;;;;;6.90;4.40;;;;;;;-1.45;65.44;100461.89;107489;1254;60371;-80
2024/02/20 08:22:26;;;;;;;7.80;4.80;;;;;;;-1.45;65.84;100466.06;107495;1254;61027;-78
2024/02/20 08:24:54;;;;;;;8.50;4.50;;;;;;;-1.45;66.07;100468.48;107070;1254;72624;-80
2024/02/20 08:27:21;;;;;;;7.70;4.80;;;;;;;-1.46;66.44;100487.48;106253;1257;70514;-76
2024/02/20 08:29:49;;;;;;;6.00;4.40;;;;;;;-1.48;67.07;100464.46;105833;1259;72988;-76
2024/02/20 08:32:16;;;;;;;7.90;5.00;;;;;;;-1.51;67.12;100461.66;105883;1256;60472;-77
2024/02/20 08:34:44;;;;;;;9.30;4.10;;;;;;;-1.54;67.25;100464.90;105773;1259;60488;-77
2024/02/20 08:37:11;;;;;;;4.90;3.40;;;;;;;-1.47;67.60;100465.66;105862;1255;72626;-77
2024/02/20 08:39:39;;;;;;;5.00;3.20;;;;;;;-1.44;67.12;100459.74;106156;1254;70608;-76
2024/02/20 08:42:06;;;;;;;4.60;3.70;;;;;;;-1.50;67.11;100478.98;106491;1254;70728;-77
2024/02/20 08:44:34;;;;;;;5.70;4.30;;;;;;;-1.54;67.29;100459.56;108348;1257;60650;-76
2024/02/20 08:47:01;;;;;;;7.60;5.30;;;;;;;-1.55;67.52;100462.20;108592;1252;61081;-75
2024/02/20 08:49:29;;;;;;;6.60;4.70;;;;;;;-1.55;67.37;100461.49;106994;1253;74710;-78
2024/02/20 08:51:59;;;;;;;10.40;4.40;;;;;;;-1.54;67.52;100447.22;106313;1253;71086;-81
2024/02/20 08:54:26;;;;;;;7.80;4.80;;;;;;;-1.53;67.77;100453.09;106453;1254;71266;-81
2024/02/20 08:56:56;;;;;;;8.00;4.60;;;;;;;-1.51;67.65;100470.21;106004;1254;60462;-82
2024/02/20 08:59:24;;;;;;;8.20;4.80;;;;;;;-1.51;67.43;100451.42;106104;1254;60565;-80
2024/02/20 09:01:52;;;;;;;7.40;4.80;;;;;;;-1.53;67.60;100451.51;105986;1260;74169;-80
2024/02/20 09:04:19;;;;;;;7.80;4.80;;;;;;;-1.52;67.65;100455.61;105973;1254;68920;-80
2024/02/20 09:06:47;;;;;;;9.00;4.90;;;;;;;-1.41;67.43;100456.66;106862;1254;72426;-78
2024/02/20 09:09:16;;;;;;;5.90;4.10;;;;;;;-1.32;67.08;100454.36;106752;1259;60465;-77
2024/02/20 09:11:43;;;;;;;6.40;4.10;;;;;;;-1.32;67.12;100448.08;105961;1252;60376;-81
2024/02/20 09:14:11;;;;;;;11.20;6.00;;;;;;;-1.35;67.44;100443.55;105938;1253;74076;-81
2024/02/20 09:16:38;;;;;;;10.90;4.70;;;;;;;-1.38;67.74;100442.48;106026;1255;70860;-81
2024/02/20 09:19:06;;;;;;;11.30;5.60;;;;;;;-1.40;67.86;100442.36;105908;1254;73320;-79
2024/02/20 09:21:34;;;;;;;8.10;5.80;;;;;;;-1.40;68.21;100434.21;106001;1254;60579;-81
2024/02/20 09:24:01;;;;;;;11.80;5.70;;;;;;;-1.41;69.07;100446.59;106031;1257;60499;-82
2024/02/20 09:26:30;;;;;;;8.70;5.50;;;;;;;-1.45;69.52;100440.16;105841;1257;74386;-80
2024/02/20 09:28:58;;;;;;;9.30;5.20;;;;;;;-1.46;69.08;100433.44;106084;1254;69831;-81
2024/02/20 09:31:25;;;;;;;8.60;5.00;;;;;;;-1.34;69.06;100439.67;106250;1254;74807;-80
2024/02/20 09:33:52;;;;;;;9.50;5.00;;;;;;;-1.25;68.61;100431.39;107094;1253;60542;-86
2024/02/20 09:36:20;;;;;;;9.10;5.70;;;;;;;-1.26;68.30;100427.09;106942;1252;59404;-86
2024/02/20 09:38:48;;;;;;;6.50;4.90;;;;;;;-1.24;68.00;100429.23;106842;1252;76035;-80
2024/02/20 09:41:22;;;;;;;8.80;5.70;;;;;;;-1.19;67.78;100420.67;107246;1253;70396;-79
2024/02/20 09:43:49;;;;;;;7.20;4.70;;;;;;;-1.15;67.53;100432.98;106813;1253;72384;-79
2024/02/20 09:46:19;;;;;;;7.00;4.80;;;;;;;-1.13;66.96;100440.88;108624;1254;58155;-79
2024/02/20 09:48:47;;;;;;;7.30;4.60;;;;;;;-1.13;66.66;100452.85;108582;1253;61136;-78
2024/02/20 09:51:18;;;;;;;9.50;4.40;;;;;;;-1.14;66.63;100422.15;106844;1251;71801;-80
2024/02/20 09:53:48;;;;;;;7.30;4.60;;;;;;;-1.14;66.52;100431.04;106652;1254;70113;-79
2024/02/20 09:56:17;;;;;;;6.30;4.10;;;;;;;-1.15;66.55;100438.55;106226;1254;70680;-80
2024/02/20 09:58:44;;;;;;;8.50;5.20;;;;;;;-1.17;67.01;100456.20;105965;1254;60445;-79
2024/02/20 10:01:12;;;;;;;6.40;4.40;;;;;;;-1.24;67.78;100417.08;106189;1252;60470;-79
2024/02/20 10:03:40;;;;;;;6.70;4.20;;;;;;;-1.27;67.78;100423.50;106075;1259;73119;-80
2024/02/20 10:06:08;;;;;;;7.50;4.50;;;;;;;-1.27;67.52;100413.61;106522;1253;70882;-77
2024/02/20 10:08:36;;;;;;;8.40;4.30;;;;;;;-1.27;67.72;100419.12;106202;1254;75272;-76
2024/02/20 10:11:06;;;;;;;6.20;4.20;;;;;;;-1.16;67.68;100405.56;106067;1260;61873;-80
2024/02/20 10:13:44;;;;;;;6.90;4.60;;;;;;;-1.09;67.57;100409.71;106352;1252;60546;-81
2024/02/20 10:16:15;;;;;;;7.90;4.40;;;;;;;-1.06;67.38;100419.14;106551;1257;76123;-82
2024/02/20 10:18:44;;;;;;;6.10;4.50;;;;;;;-1.07;67.07;100413.10;106445;1253;69711;-80
2024/02/20 10:21:15;;;;;;;6.90;4.90;;;;;;;-1.09;67.23;100408.14;107322;1257;71889;-80
2024/02/20 10:23:43;;;;;;;8.90;4.90;;;;;;;-1.11;67.36;100399.22;106335;1253;60977;-81
2024/02/20 10:26:11;;;;;;;8.70;5.00;;;;;;;-1.13;67.42;100410.80;106200;1254;60461;-80
2024/02/20 10:28:39;;;;;;;7.20;5.00;;;;;;;-1.16;67.69;100404.73;106429;1253;73080;-82
2024/02/20 10:31:07;;;;;;;8.60;4.80;;;;;;;-1.18;67.79;100389.16;106294;1258;69307;-82
2024/02/20 10:33:35;;;;;;;10.30;5.20;;;;;;;-1.18;67.98;100384.80;106417;1255;72447;-81
2024/02/20 10:36:06;;;;;;;7.80;5.50;;;;;;;-1.15;68.03;100383.81;106152;1254;59362;-81
2024/02/20 10:38:34;;;;;;;9.50;5.50;;;;;;;-1.12;68.16;100387.30;106340;1253;231610;-82
2024/02/20 10:43:47;;;;;;;7.50;4.90;;;;;;;-0.94;67.71;100402.38;105566;1292;600061;-78
2024/02/20 10:46:15;;;;;;;10.50;5.60;;;;;;;-0.98;67.87;100395.96;107562;1270;59142;-77
2024/02/20 10:48:48;;;;;;;7.40;5.70;;;;;;;-1.01;68.00;100397.48;106200;1261;59817;-77
2024/02/20 10:51:15;;;;;;;8.60;6.10;;;;;;;-1.02;68.08;100387.29;106085;1263;73253;-78
2024/02/20 10:53:43;;;;;;;7.00;5.50;;;;;;;-1.08;68.74;100396.64;105856;1266;70083;-77
2024/02/20 10:56:10;;;;;;;9.40;5.80;;;;;;;-1.15;69.07;100405.35;105696;1261;177078;-78
2024/02/20 10:58:40;;;;;;;9.00;5.90;;;;;;;-1.21;69.47;100384.08;106019;1257;59795;-77
2024/02/20 11:01:13;;;;;;;13.70;5.30;;;;;;;-1.16;69.71;100389.56;105770;1257;61244;-81
2024/02/20 11:03:40;;;;;;;8.10;5.70;;;;;;;-1.01;69.71;100379.77;106014;1261;73308;-79
2024/02/20 11:06:25;;;;;;;8.50;6.20;;;;;;;-0.99;70.01;100398.96;105821;1258;72645;-79
2024/02/20 11:09:13;;;;;;;11.00;6.70;;;;;;;-1.05;71.30;100387.79;105668;1257;74865;-77
2024/02/20 11:11:41;;;;;;;8.60;6.10;;;;;;;-1.11;72.53;100378.72;105776;1260;59632;-78
2024/02/20 11:14:09;;;;;;;9.60;7.10;;;;;;;-1.16;73.42;100375.68;105682;1257;59826;-79
2024/02/20 11:16:37;;;;;;;10.40;7.30;;;;;;;-1.21;73.83;100366.69;106842;1257;75235;-81
2024/02/20 11:19:25;;;;;;;10.30;7.00;;;;;;;-1.18;73.29;100361.35;107178;1260;69318;-81
2024/02/20 11:21:53;;;;;;;12.10;7.10;;;;;;;-1.12;72.94;100356.70;106807;1260;71490;-80